Terminal Aerodrome Forecast
Issued by NWS Charleston, WV

Home | Current Version | Previous Version | Text Only | Print | Product List | Glossary On
Versions: 1 2 3 4 5 6 7 8 9 10 11 12 13 14 15 16 17 18 19 20 21 22 23 24 25 26
000
FTUS41 KRLX 010216 AAA
TAFEKN
TAF AMD
KEKN 010216Z 0102/0124 00000KT P6SM SCT080
     FM010400 00000KT 6SM -SHRA BKN060
      TEMPO 0104/0107 4SM SHRA BR
     FM010700 00000KT 3SM BR BKN040
     FM011200 00000KT 4SM BR OVC015
     FM011300 00000KT 5SM BR OVC010
     FM011500 VRB03KT P6SM BKN015
     FM011600 32004KT P6SM BKN035
     FM012000 33006KT P6SM SCT040=

USA.gov is the U.S. government's official web portal to all federal, state and local government web resources and services.